Airfield :
LOGIN :

Register | Disclaimer

   EN    FR    IT 

 










Legend :    VFR   Marginal VFR   IFR   Intensive IFR   Very Intensive IFR
Visi :
Ceiling :
>= 8 km
>= 3000ft
5 to 8 km
1000 to 3000 ft
1500m to 5 km
500 to 1000 ft
800 to 1500m
200 to 500 ft
< 800m
< 200 ft
Symbols :   Thunderstorms  Fog  Heavy snow  Heavy precipitations  Wind > 20 kt
SIGMETs :     Misc.  Thunderstorms  Icing  Turbulence  Mountain Waves  Volcanic Ashes






- Airport Elevation : 277 ft
- IATA code : JER


EGJJ - Jersey

CURRENT METAR :
  • 281620Z AUTO 06015G25KT 9999 NCD 18/07 Q1028

EXPIRED METARs :
  • 281550Z 07017KT CAVOK 19/06 Q1028
  • 281520Z 07017KT CAVOK 19/07 Q1028
  • 281450Z 06017KT 030V090 CAVOK 19/08 Q1028
  • 281420Z 06016KT 030V090 CAVOK 19/08 Q1029
  • 281350Z 06015KT 020V090 CAVOK 19/10 Q1029
  • 281320Z 07015KT 030V100 CAVOK 19/10 Q1029

TAF TAF EGJJ
Valid from the 28 at 15:00 until the 29 at 00:00 UTC


281356Z 2815/2900 07016KT CAVOK
ATIS : +44 1534 498 073



MET'MAP, your aeronautical weather chart ! - Copyright ORBIFLY December 2007 - Disclaimer

ORBIFLY MET'MAP TEAM :

Programming & Development : Alexandra Zaïnal
Concept & original design : Baudouin d'Aumeries
Assistance for programming : Marc-Olivier Méhu
Technical & hardware support : Manuel Goepfert

Contact : metmap@orbifly.com




SOURCES & CREDITS :

   NOAA